Time;durP1;ratioP1;P1;durP2;ratioP2;P2;SDS_P1;SDS_P2;PMS_P1;PMS_P2;Temp;Humidity;BMP_temperature;BMP_pressure;BME280_temperature;BME280_humidity;BME280_pressure;Samples;Min_cycle;Max_cycle;Signal;HPM_P1;HPM_P2
2022/10/22 00:01:11;;;;;;;11.63;11.13;;;14.80;99.90;;;;;;10374595;28;20262;-79
2022/10/22 00:06:12;;;;;;;12.00;11.40;;;14.80;99.90;;;;;;10348945;28;20297;-79
2022/10/22 00:11:18;;;;;;;12.37;11.80;;;14.80;99.90;;;;;;10385127;28;20202;-78
2022/10/22 00:16:20;;;;;;;11.70;11.00;;;14.80;99.90;;;;;;10391410;23;20313;-81
2022/10/22 00:21:22;;;;;;;16.90;15.20;;;14.80;99.90;;;;;;10369117;28;20261;-82
2022/10/22 00:26:26;;;;;;;13.13;12.20;;;14.70;99.90;;;;;;10384049;28;20214;-81
2022/10/22 00:31:28;;;;;;;12.80;12.10;;;14.70;99.90;;;;;;10380730;28;20202;-82
2022/10/22 00:36:31;;;;;;;11.50;11.00;;;14.70;99.90;;;;;;10380680;28;20227;-81
2022/10/22 00:41:37;;;;;;;10.83;10.33;;;14.80;99.90;;;;;;10384261;28;20571;-81
2022/10/22 00:46:39;;;;;;;11.80;11.30;;;14.70;99.90;;;;;;10380326;28;20217;-82
2022/10/22 00:51:41;;;;;;;11.43;11.03;;;14.70;99.90;;;;;;10364588;28;20643;-80
2022/10/22 00:56:45;;;;;;;12.40;11.80;;;14.70;99.90;;;;;;10381374;28;20207;-81
2022/10/22 01:01:49;;;;;;;12.10;11.60;;;14.80;99.90;;;;;;10359124;28;20242;-81
2022/10/22 01:06:51;;;;;;;14.77;13.77;;;14.80;99.90;;;;;;10363021;28;20222;-81
2022/10/22 01:12:06;;;;;;;12.40;11.80;;;14.80;99.90;;;;;;10383423;28;20278;-82
2022/10/22 01:17:14;;;;;;;12.17;11.57;;;14.80;99.90;;;;;;10385384;28;20252;-82
2022/10/22 01:22:23;;;;;;;13.30;12.33;;;14.80;99.90;;;;;;10386483;28;20222;-82
2022/10/22 01:27:34;;;;;;;11.50;10.80;;;14.80;99.90;;;;;;10386280;28;20221;-81
2022/10/22 01:32:43;;;;;;;11.83;11.33;;;14.80;99.90;;;;;;10373175;28;20219;-81
2022/10/22 01:37:49;;;;;;;11.40;11.00;;;14.80;99.90;;;;;;10372974;28;20241;-81
2022/10/22 01:42:59;;;;;;;11.47;10.87;;;14.80;99.90;;;;;;10388286;28;20257;-82
2022/10/22 01:48:13;;;;;;;11.30;10.80;;;14.80;99.90;;;;;;10384061;28;20210;-81
2022/10/22 01:53:22;;;;;;;11.60;10.97;;;14.70;99.90;;;;;;10382078;28;20225;-81
2022/10/22 01:58:38;;;;;;;10.57;10.07;;;14.80;99.90;;;;;;10388615;28;20237;-82
2022/10/22 02:03:48;;;;;;;11.23;10.73;;;14.90;99.90;;;;;;10365762;28;20844;-81
2022/10/22 02:08:53;;;;;;;11.20;10.80;;;14.90;99.90;;;;;;10386748;28;20282;-81
2022/10/22 02:13:58;;;;;;;10.47;9.93;;;14.90;99.90;;;;;;10383970;28;20226;-81
2022/10/22 02:19:05;;;;;;;11.07;10.57;;;15.00;99.90;;;;;;10383243;28;20209;-81
2022/10/22 02:24:08;;;;;;;10.23;9.83;;;15.00;99.90;;;;;;10367454;28;20698;-82
2022/10/22 02:29:15;;;;;;;10.10;9.70;;;15.10;99.90;;;;;;10385427;28;20728;-81
2022/10/22 02:34:22;;;;;;;10.70;10.20;;;15.10;99.90;;;;;;10386523;28;20705;-82
2022/10/22 02:39:26;;;;;;;10.20;9.60;;;15.10;99.90;;;;;;10377601;28;20202;-82
2022/10/22 02:44:28;;;;;;;7.77;7.50;;;15.10;99.90;;;;;;10377416;28;20313;-81
2022/10/22 02:49:31;;;;;;;8.70;8.30;;;15.10;99.90;;;;;;10378648;28;20198;-81
2022/10/22 02:54:33;;;;;;;8.23;7.90;;;15.10;99.90;;;;;;10381950;28;20230;-82
2022/10/22 02:59:36;;;;;;;8.70;8.30;;;15.20;99.90;;;;;;10383703;28;20189;-82
2022/10/22 03:04:39;;;;;;;8.23;7.93;;;15.20;99.90;;;;;;10388274;28;20293;-82
2022/10/22 03:09:41;;;;;;;8.33;7.73;;;15.20;99.90;;;;;;10388428;28;20203;-82
2022/10/22 03:14:43;;;;;;;7.57;7.27;;;15.20;99.90;;;;;;10386932;28;20222;-82
2022/10/22 03:19:46;;;;;;;10.20;9.33;;;15.30;99.90;;;;;;10388942;28;20213;-82
2022/10/22 03:24:53;;;;;;;8.00;7.50;;;15.30;99.90;;;;;;10388689;28;20256;-82
2022/10/22 03:29:56;;;;;;;7.47;7.10;;;15.30;99.90;;;;;;10387929;28;20180;-82
2022/10/22 03:35:00;;;;;;;8.17;7.87;;;15.30;99.90;;;;;;10387684;28;20241;-81
2022/10/22 03:40:03;;;;;;;9.00;8.17;;;15.30;99.90;;;;;;10391014;28;20206;-82
2022/10/22 03:45:06;;;;;;;8.50;8.07;;;15.30;99.90;;;;;;10391066;28;20253;-81
2022/10/22 03:50:10;;;;;;;8.50;8.10;;;15.30;99.90;;;;;;10383666;28;20175;-81
2022/10/22 03:55:12;;;;;;;7.80;7.50;;;15.30;99.90;;;;;;10365205;28;20214;-81
2022/10/22 04:00:15;;;;;;;8.07;7.70;;;15.40;99.90;;;;;;10381205;28;20202;-81
2022/10/22 04:05:18;;;;;;;7.80;7.50;;;15.40;99.90;;;;;;10382138;28;20233;-81
2022/10/22 04:10:20;;;;;;;7.00;6.37;;;15.30;99.90;;;;;;10382457;28;20190;-80
2022/10/22 04:15:25;;;;;;;7.00;6.80;;;15.40;99.90;;;;;;10381340;28;20326;-80
2022/10/22 04:20:29;;;;;;;7.57;7.27;;;15.40;99.90;;;;;;10379720;28;20202;-81
2022/10/22 04:25:30;;;;;;;7.57;6.97;;;15.40;99.90;;;;;;10381188;28;20229;-80
2022/10/22 04:30:33;;;;;;;8.40;7.77;;;15.40;99.90;;;;;;10363266;28;20201;-81
2022/10/22 04:35:39;;;;;;;7.80;7.43;;;15.40;99.90;;;;;;10383509;28;20214;-81
2022/10/22 04:40:42;;;;;;;6.60;6.40;;;15.30;99.90;;;;;;10384795;28;20199;-81
2022/10/22 04:45:44;;;;;;;6.50;6.30;;;15.30;99.90;;;;;;10385461;28;20233;-80
2022/10/22 04:50:47;;;;;;;5.57;5.30;;;15.30;99.90;;;;;;10383059;28;20201;-81
2022/10/22 04:55:49;;;;;;;7.37;7.07;;;15.30;99.90;;;;;;10378393;28;20226;-80
2022/10/22 05:00:51;;;;;;;7.10;6.80;;;15.30;99.90;;;;;;10379718;28;20183;-80
2022/10/22 05:05:54;;;;;;;6.80;6.50;;;15.30;99.90;;;;;;10380669;28;20222;-81
2022/10/22 05:10:56;;;;;;;6.00;5.70;;;15.20;99.90;;;;;;10382395;28;20281;-81
2022/10/22 05:16:01;;;;;;;5.67;5.37;;;15.20;99.90;;;;;;10381006;28;20639;-81
2022/10/22 05:21:08;;;;;;;5.80;5.40;;;15.20;99.90;;;;;;10377901;28;20187;-81
2022/10/22 05:26:13;;;;;;;4.50;4.30;;;15.20;99.90;;;;;;10377932;28;20229;-81
2022/10/22 05:31:15;;;;;;;4.80;4.60;;;15.20;99.90;;;;;;10377409;28;20195;-81
2022/10/22 05:36:21;;;;;;;4.40;4.20;;;15.20;99.90;;;;;;10380287;28;20264;-81
2022/10/22 05:41:25;;;;;;;3.60;3.40;;;15.20;99.90;;;;;;10378121;28;20659;-81
2022/10/22 05:46:30;;;;;;;4.27;4.07;;;15.30;99.90;;;;;;10362729;28;20223;-81
2022/10/22 05:51:36;;;;;;;3.67;3.50;;;15.30;99.90;;;;;;10377532;28;20718;-81
2022/10/22 05:56:38;;;;;;;3.70;3.60;;;15.40;99.90;;;;;;10379841;28;20221;-82
2022/10/22 06:01:41;;;;;;;4.37;3.97;;;15.40;99.90;;;;;;10378493;28;20211;-81
2022/10/22 06:06:46;;;;;;;3.50;3.40;;;15.40;99.90;;;;;;10378871;28;20223;-81
2022/10/22 06:11:49;;;;;;;3.67;3.57;;;15.40;99.90;;;;;;10380506;28;20628;-81
2022/10/22 06:16:52;;;;;;;3.17;3.07;;;15.40;99.90;;;;;;10381983;28;20227;-81
2022/10/22 06:21:55;;;;;;;4.30;3.97;;;15.50;99.90;;;;;;10367233;28;20589;-81
2022/10/22 06:26:57;;;;;;;3.30;3.20;;;15.50;99.90;;;;;;10383255;28;20702;-81
2022/10/22 06:31:59;;;;;;;4.10;3.90;;;15.50;99.90;;;;;;10366917;28;20220;-82
2022/10/22 06:37:03;;;;;;;3.47;3.30;;;15.60;99.90;;;;;;10365791;28;20704;-81
2022/10/22 06:42:05;;;;;;;4.00;3.80;;;15.60;99.90;;;;;;10376346;28;20764;-81
2022/10/22 06:47:09;;;;;;;3.30;3.20;;;15.70;99.90;;;;;;10376922;28;20221;-81
2022/10/22 06:52:12;;;;;;;4.70;3.60;;;15.70;99.90;;;;;;10376635;28;20659;-81
2022/10/22 06:57:14;;;;;;;2.90;2.80;;;15.80;99.90;;;;;;10346896;28;20220;-81
2022/10/22 07:02:16;;;;;;;3.30;3.20;;;15.80;99.90;;;;;;10377688;28;20229;-81
2022/10/22 07:07:20;;;;;;;3.90;3.27;;;15.90;99.90;;;;;;10382322;28;20218;-81
2022/10/22 07:12:22;;;;;;;3.87;3.57;;;16.00;99.90;;;;;;10388053;28;20274;-81
2022/10/22 07:17:24;;;;;;;2.40;2.30;;;16.00;99.90;;;;;;10392302;28;20222;-81
2022/10/22 07:22:27;;;;;;;3.40;3.30;;;16.10;99.90;;;;;;10355812;28;20215;-82
2022/10/22 07:27:30;;;;;;;1.90;1.80;;;16.10;99.90;;;;;;10386326;28;20229;-82
2022/10/22 07:32:32;;;;;;;3.07;2.87;;;16.20;99.90;;;;;;10381329;28;20659;-81
2022/10/22 07:37:35;;;;;;;2.00;1.90;;;16.20;99.90;;;;;;10362758;28;20222;-81
2022/10/22 07:42:37;;;;;;;2.90;2.70;;;16.30;99.90;;;;;;10388791;28;20210;-80
2022/10/22 07:47:39;;;;;;;3.50;3.40;;;16.20;99.90;;;;;;10378797;28;20645;-81
2022/10/22 07:52:43;;;;;;;2.80;2.70;;;16.20;99.90;;;;;;10393357;28;20569;-80
2022/10/22 07:57:45;;;;;;;3.37;3.27;;;16.10;99.90;;;;;;10389978;28;20225;-80
2022/10/22 08:02:47;;;;;;;3.30;3.10;;;16.20;99.90;;;;;;10384839;28;20253;-80
2022/10/22 08:07:50;;;;;;;3.50;3.20;;;16.20;99.90;;;;;;10382186;28;20242;-80
2022/10/22 08:12:52;;;;;;;3.50;3.27;;;16.30;99.90;;;;;;10386001;28;20205;-81
2022/10/22 08:17:54;;;;;;;4.37;4.27;;;16.40;99.90;;;;;;10384097;28;20230;-80
2022/10/22 08:22:58;;;;;;;3.20;3.00;;;16.50;99.90;;;;;;10361393;28;20242;-80
2022/10/22 08:28:00;;;;;;;3.30;3.00;;;16.70;99.90;;;;;;10383816;28;20215;-80
2022/10/22 08:33:02;;;;;;;3.90;3.80;;;16.70;99.90;;;;;;10387122;28;20865;-81
2022/10/22 08:38:06;;;;;;;4.13;3.70;;;16.70;99.90;;;;;;10362825;28;20219;-79
2022/10/22 08:43:41;;;;;;;4.63;4.43;;;16.60;99.90;;;;;;10379820;28;20993;-80
2022/10/22 08:48:46;;;;;;;4.40;4.20;;;16.60;99.90;;;;;;10377123;28;20198;-81
2022/10/22 08:54:22;;;;;;;4.10;3.90;;;16.50;99.90;;;;;;10375105;28;20229;-80
2022/10/22 08:59:29;;;;;;;6.13;5.73;;;16.50;99.90;;;;;;10366416;28;20262;-80
2022/10/22 09:04:40;;;;;;;6.13;5.73;;;16.50;99.90;;;;;;10377251;28;20699;-80
2022/10/22 09:09:50;;;;;;;5.97;3.90;;;16.50;99.90;;;;;;10377652;28;20632;-81
2022/10/22 09:14:52;;;;;;;5.10;4.80;;;16.50;99.90;;;;;;10378721;28;20713;-80
2022/10/22 09:20:09;;;;;;;5.73;4.07;;;16.50;99.90;;;;;;10379123;28;20201;-81
2022/10/22 09:25:19;;;;;;;5.10;4.77;;;16.50;99.90;;;;;;10374699;28;20230;-80
2022/10/22 09:30:24;;;;;;;5.10;4.10;;;16.60;99.90;;;;;;10371920;28;20190;-80
2022/10/22 09:35:26;;;;;;;3.83;3.60;;;16.70;99.90;;;;;;10377757;28;20849;-80
2022/10/22 09:40:29;;;;;;;9.07;3.77;;;16.70;99.90;;;;;;10376602;28;20195;-79
2022/10/22 09:45:32;;;;;;;3.60;3.40;;;16.80;99.90;;;;;;10374177;28;20580;-80
2022/10/22 09:50:42;;;;;;;3.97;3.77;;;16.80;99.90;;;;;;10359967;28;20222;-79
2022/10/22 09:55:50;;;;;;;3.80;3.60;;;16.90;99.90;;;;;;10376769;28;20237;-79
2022/10/22 10:00:54;;;;;;;4.03;3.70;;;17.00;99.90;;;;;;10378397;28;20203;-79
2022/10/22 10:05:59;;;;;;;3.43;3.33;;;17.10;99.90;;;;;;10377154;28;20249;-80
2022/10/22 10:11:09;;;;;;;3.33;3.20;;;17.10;99.90;;;;;;10377890;28;20190;-80
2022/10/22 10:16:26;;;;;;;3.00;2.90;;;17.20;99.90;;;;;;10378371;28;20210;-80
2022/10/22 10:21:38;;;;;;;4.40;3.93;;;17.10;99.90;;;;;;10374455;28;20281;-80
2022/10/22 10:26:52;;;;;;;3.70;3.40;;;17.20;99.90;;;;;;10375391;28;20226;-79
2022/10/22 10:32:12;;;;;;;3.10;2.80;;;17.30;99.90;;;;;;10380547;28;20644;-80
2022/10/22 10:37:20;;;;;;;5.87;3.67;;;17.30;99.90;;;;;;10379831;28;20210;-79
2022/10/22 10:42:33;;;;;;;3.33;3.17;;;17.40;99.90;;;;;;10381175;28;20190;-79
2022/10/22 10:48:00;;;;;;;5.13;4.67;;;17.50;99.90;;;;;;10379253;28;20632;-80
2022/10/22 10:53:14;;;;;;;6.70;5.90;;;17.50;99.90;;;;;;10378619;28;20179;-80
2022/10/22 10:58:24;;;;;;;3.23;3.03;;;17.50;99.90;;;;;;10379044;28;20249;-79
2022/10/22 11:03:58;;;;;;;3.97;3.73;;;17.50;99.90;;;;;;10378556;28;20210;-79
2022/10/22 11:09:05;;;;;;;4.70;3.60;;;17.50;99.90;;;;;;10380129;28;20198;-80
2022/10/22 11:14:17;;;;;;;3.30;3.00;;;17.60;99.90;;;;;;10379241;28;20305;-80
2022/10/22 11:19:24;;;;;;;3.93;2.97;;;17.70;99.90;;;;;;10378526;28;20198;-79
2022/10/22 11:24:33;;;;;;;4.20;3.90;;;17.80;99.90;;;;;;10366836;28;20228;-80
2022/10/22 11:29:41;;;;;;;3.93;3.50;;;17.70;99.90;;;;;;10388293;28;20258;-80
2022/10/22 11:34:47;;;;;;;3.87;3.23;;;17.70;99.90;;;;;;10386777;28;20836;-79
2022/10/22 11:39:52;;;;;;;3.37;3.17;;;17.70;99.90;;;;;;10386731;28;20286;-80
2022/10/22 11:45:01;;;;;;;3.97;3.67;;;17.70;99.90;;;;;;10387879;28;20302;-80
2022/10/22 11:50:20;;;;;;;3.03;2.83;;;17.70;99.90;;;;;;10386895;28;20222;-80
2022/10/22 11:55:34;;;;;;;3.23;3.10;;;17.70;99.90;;;;;;10388534;28;20709;-80
2022/10/22 12:00:47;;;;;;;5.90;2.70;;;17.90;99.90;;;;;;10387207;28;20585;-80
2022/10/22 12:06:03;;;;;;;4.23;3.20;;;18.00;99.90;;;;;;10413018;28;20879;-80
2022/10/22 12:11:13;;;;;;;3.80;3.03;;;18.20;99.90;;;;;;10407822;28;20225;-78
2022/10/22 12:16:17;;;;;;;2.73;2.63;;;18.30;99.90;;;;;;10416291;23;20258;-78
2022/10/22 12:21:20;;;;;;;3.90;3.70;;;18.50;99.90;;;;;;10396192;28;20201;-79
2022/10/22 12:26:24;;;;;;;4.30;3.90;;;18.60;99.90;;;;;;10357217;28;20229;-79
2022/10/22 12:31:34;;;;;;;3.27;2.97;;;18.80;99.90;;;;;;10376089;28;20203;-80
2022/10/22 12:36:36;;;;;;;3.23;2.93;;;18.90;99.90;;;;;;10388191;28;20506;-80
2022/10/22 12:41:39;;;;;;;5.17;4.67;;;18.90;99.90;;;;;;10395711;28;20195;-80
2022/10/22 12:46:44;;;;;;;2.20;2.00;;;18.90;99.90;;;;;;10362727;28;20225;-80
2022/10/22 12:51:48;;;;;;;3.67;3.03;;;18.80;99.90;;;;;;10383059;28;20195;-80
2022/10/22 12:56:51;;;;;;;2.90;2.70;;;18.70;99.90;;;;;;10382038;28;20601;-80
2022/10/22 13:01:55;;;;;;;2.70;2.60;;;18.60;99.90;;;;;;10387142;28;20195;-80
2022/10/22 13:07:18;;;;;;;3.70;2.80;;;18.50;99.90;;;;;;10380824;28;20223;-80
2022/10/22 13:12:24;;;;;;;3.30;3.10;;;18.40;99.90;;;;;;10382955;28;20681;-80
2022/10/22 13:17:40;;;;;;;4.27;3.27;;;18.20;99.90;;;;;;10384171;28;20249;-80
2022/10/22 13:22:53;;;;;;;3.80;3.60;;;18.20;99.90;;;;;;10380756;28;20194;-80
2022/10/22 13:27:57;;;;;;;5.73;5.23;;;18.10;99.90;;;;;;10387777;28;20241;-80
2022/10/22 13:33:03;;;;;;;3.30;3.10;;;18.10;99.90;;;;;;10381652;28;20198;-80
2022/10/22 13:38:15;;;;;;;4.00;3.63;;;18.00;99.90;;;;;;10380597;28;20223;-80
2022/10/22 13:43:18;;;;;;;5.73;3.50;;;18.00;99.90;;;;;;10387006;28;20234;-80
2022/10/22 13:48:25;;;;;;;5.07;4.20;;;18.00;99.90;;;;;;10374889;28;20218;-79
2022/10/22 13:53:30;;;;;;;4.00;3.80;;;18.00;99.90;;;;;;10378097;28;20202;-79
2022/10/22 13:58:32;;;;;;;3.20;2.97;;;17.90;99.90;;;;;;10374550;28;20218;-79
2022/10/22 14:03:37;;;;;;;3.37;3.17;;;17.90;99.90;;;;;;10378900;28;20585;-79
2022/10/22 14:08:40;;;;;;;4.73;4.33;;;17.80;99.90;;;;;;10376117;28;20222;-79
2022/10/22 14:13:42;;;;;;;4.27;3.50;;;17.80;99.90;;;;;;10377446;28;20197;-79
2022/10/22 14:18:46;;;;;;;6.17;3.23;;;17.80;99.90;;;;;;10377937;28;20206;-78
2022/10/22 14:23:50;;;;;;;7.73;4.30;;;17.80;99.90;;;;;;10377610;28;20686;-79
2022/10/22 14:28:52;;;;;;;3.87;3.40;;;17.90;99.90;;;;;;10375568;28;20198;-79
2022/10/22 14:33:55;;;;;;;4.23;3.80;;;17.90;99.90;;;;;;10376635;28;20262;-78
2022/10/22 14:38:57;;;;;;;3.60;3.37;;;17.90;99.90;;;;;;10351874;28;20755;-78
2022/10/22 14:44:00;;;;;;;4.67;3.10;;;17.90;99.90;;;;;;10369750;28;20218;-77
2022/10/22 14:49:03;;;;;;;7.47;2.57;;;17.90;99.90;;;;;;10368461;28;20248;-80
2022/10/22 14:54:05;;;;;;;4.50;4.10;;;17.90;99.90;;;;;;10368298;28;20268;-79
2022/10/22 14:59:07;;;;;;;3.53;2.90;;;17.90;99.90;;;;;;10377588;28;20202;-78
2022/10/22 15:04:11;;;;;;;3.80;3.50;;;17.80;99.90;;;;;;10378229;28;20224;-77
2022/10/22 15:09:13;;;;;;;4.07;3.77;;;17.70;99.90;;;;;;10378153;28;20214;-78
2022/10/22 15:14:15;;;;;;;5.70;3.53;;;17.70;99.90;;;;;;10387676;28;20225;-78
2022/10/22 15:19:18;;;;;;;6.50;3.30;;;17.70;99.90;;;;;;10386892;28;20210;-78
2022/10/22 15:24:20;;;;;;;4.47;3.67;;;17.70;99.90;;;;;;10384544;28;20627;-79
2022/10/22 15:29:23;;;;;;;4.53;2.67;;;17.70;99.90;;;;;;10385059;28;20241;-79
2022/10/22 15:34:28;;;;;;;4.43;4.10;;;17.60;99.90;;;;;;10383980;28;20702;-79
2022/10/22 15:39:31;;;;;;;5.53;3.43;;;17.60;99.90;;;;;;10383342;28;20190;-79
2022/10/22 15:44:33;;;;;;;7.30;3.50;;;17.60;99.90;;;;;;10389137;28;20226;-79
2022/10/22 15:49:40;;;;;;;4.53;3.90;;;17.40;99.90;;;;;;10381994;28;20195;-78
2022/10/22 15:54:42;;;;;;;4.17;3.20;;;17.40;99.90;;;;;;10378703;28;20214;-78
2022/10/22 15:59:45;;;;;;;3.87;3.47;;;17.30;99.90;;;;;;10377370;28;20253;-78
2022/10/22 16:04:49;;;;;;;4.17;3.73;;;17.20;99.90;;;;;;10378880;28;20214;-78
2022/10/22 16:09:54;;;;;;;9.60;3.80;;;17.20;99.90;;;;;;10377171;28;20199;-78
2022/10/22 16:14:56;;;;;;;4.50;4.10;;;17.10;99.90;;;;;;10378567;28;20309;-78
2022/10/22 16:20:00;;;;;;;6.10;3.67;;;17.00;99.90;;;;;;10378636;28;20602;-78
2022/10/22 16:25:02;;;;;;;12.67;4.47;;;16.90;99.90;;;;;;10378566;28;20225;-78
2022/10/22 16:30:04;;;;;;;4.60;3.50;;;16.80;99.90;;;;;;10377875;28;20319;-78
2022/10/22 16:35:09;;;;;;;9.60;4.40;;;16.80;99.90;;;;;;10378872;28;20229;-78
2022/10/22 16:40:12;;;;;;;10.07;4.90;;;16.70;99.90;;;;;;10379345;28;20206;-78
2022/10/22 16:45:14;;;;;;;5.60;5.00;;;16.60;99.90;;;;;;10378993;28;20305;-78
2022/10/22 16:50:18;;;;;;;7.73;4.10;;;16.50;99.90;;;;;;10376928;28;20299;-78
2022/10/22 16:55:20;;;;;;;4.03;3.43;;;16.50;99.90;;;;;;10377648;28;20234;-78
2022/10/22 17:00:22;;;;;;;4.17;3.80;;;16.40;99.90;;;;;;10375529;28;20223;-78
2022/10/22 17:05:26;;;;;;;7.30;4.40;;;16.30;99.90;;;;;;10377215;28;20229;-78
2022/10/22 17:10:28;;;;;;;6.20;5.03;;;16.30;99.90;;;;;;10378017;28;20286;-78
2022/10/22 17:15:30;;;;;;;5.17;4.10;;;16.20;99.90;;;;;;10376001;28;20252;-78
2022/10/22 17:20:34;;;;;;;5.97;4.20;;;16.20;99.90;;;;;;10373971;28;20194;-78
2022/10/22 17:25:41;;;;;;;6.63;4.43;;;16.10;99.90;;;;;;10374414;28;20691;-78
2022/10/22 17:30:43;;;;;;;10.10;4.60;;;16.00;99.90;;;;;;10376576;28;20194;-78
2022/10/22 17:35:48;;;;;;;4.90;4.50;;;16.00;99.90;;;;;;10357487;28;20306;-78
2022/10/22 17:40:50;;;;;;;12.10;7.87;;;16.00;99.90;;;;;;10357394;28;20203;-78
2022/10/22 17:45:52;;;;;;;8.53;5.27;;;15.90;99.90;;;;;;10375118;28;20307;-78
2022/10/22 17:50:55;;;;;;;7.10;4.83;;;15.90;99.90;;;;;;10375607;28;20209;-78
2022/10/22 17:56:01;;;;;;;8.70;5.33;;;15.90;99.90;;;;;;10373721;28;20211;-78
2022/10/22 18:01:03;;;;;;;4.80;4.40;;;15.80;99.90;;;;;;10375386;28;20663;-78
2022/10/22 18:06:08;;;;;;;7.90;5.40;;;15.80;99.90;;;;;;10374722;28;20227;-78
2022/10/22 18:11:13;;;;;;;5.40;4.90;;;15.80;99.90;;;;;;10375716;28;20199;-78
2022/10/22 18:16:16;;;;;;;11.40;6.30;;;15.80;99.90;;;;;;10374597;28;20222;-78
2022/10/22 18:21:20;;;;;;;10.07;5.50;;;15.80;99.90;;;;;;10374634;28;20209;-78
2022/10/22 18:26:22;;;;;;;9.57;6.10;;;15.70;99.90;;;;;;10372528;28;20681;-78
2022/10/22 18:31:26;;;;;;;8.33;6.47;;;15.70;99.90;;;;;;10365834;28;20678;-78
2022/10/22 18:36:30;;;;;;;8.17;6.20;;;15.70;99.90;;;;;;10370388;28;20229;-78
2022/10/22 18:41:34;;;;;;;8.50;6.43;;;15.70;99.90;;;;;;10370164;28;20198;-77
2022/10/22 18:46:37;;;;;;;7.60;5.63;;;15.70;99.90;;;;;;10370547;28;20242;-79
2022/10/22 18:51:41;;;;;;;11.40;7.70;;;15.60;99.90;;;;;;10373280;28;20198;-78
2022/10/22 18:56:43;;;;;;;16.70;5.33;;;15.60;99.90;;;;;;10371479;28;20256;-78
2022/10/22 19:01:45;;;;;;;8.83;7.47;;;15.60;99.90;;;;;;10372156;28;20199;-78
2022/10/22 19:06:49;;;;;;;6.90;5.77;;;15.50;99.90;;;;;;10379245;28;20222;-79
2022/10/22 19:11:51;;;;;;;7.43;6.33;;;15.50;99.90;;;;;;10391967;28;20201;-78
2022/10/22 19:16:53;;;;;;;7.50;5.77;;;15.50;99.90;;;;;;10388164;28;20222;-80
2022/10/22 19:21:58;;;;;;;9.33;6.57;;;15.50;99.90;;;;;;10383139;28;20214;-80
2022/10/22 19:27:00;;;;;;;7.63;6.90;;;15.40;99.90;;;;;;10385811;28;20214;-79
2022/10/22 19:32:02;;;;;;;7.70;6.90;;;15.40;99.90;;;;;;10387827;28;20199;-80
2022/10/22 19:37:05;;;;;;;6.70;6.10;;;15.40;99.90;;;;;;10383013;28;20698;-79
2022/10/22 19:42:08;;;;;;;9.67;6.90;;;15.40;99.90;;;;;;10382878;28;20207;-80
2022/10/22 19:47:11;;;;;;;8.60;6.67;;;15.40;99.90;;;;;;10388557;28;20681;-79
2022/10/22 19:52:14;;;;;;;10.20;6.63;;;15.40;99.90;;;;;;10389161;28;20199;-80
2022/10/22 19:57:18;;;;;;;8.03;6.70;;;15.40;99.90;;;;;;10388254;28;20297;-78
2022/10/22 20:02:20;;;;;;;13.13;6.80;;;15.40;99.90;;;;;;10394938;28;20198;-80
2022/10/22 20:07:23;;;;;;;10.47;6.30;;;15.40;99.90;;;;;;10389752;28;20257;-79
2022/10/22 20:12:25;;;;;;;6.83;6.10;;;15.30;99.90;;;;;;10387578;28;20277;-79
2022/10/22 20:17:27;;;;;;;6.10;5.60;;;15.30;99.90;;;;;;10388735;28;20265;-79
2022/10/22 20:22:31;;;;;;;11.40;6.43;;;15.30;99.90;;;;;;10389020;28;20568;-79
2022/10/22 20:27:33;;;;;;;9.30;6.53;;;15.30;99.90;;;;;;10388457;28;20218;-79
2022/10/22 20:32:37;;;;;;;6.80;6.13;;;15.30;99.90;;;;;;10389636;28;20222;-80
2022/10/22 20:37:41;;;;;;;10.07;8.60;;;15.30;99.90;;;;;;10388473;28;20221;-79
2022/10/22 20:42:43;;;;;;;11.13;7.43;;;15.30;99.90;;;;;;10402449;28;20225;-79
2022/10/22 20:47:45;;;;;;;13.03;9.93;;;15.30;99.90;;;;;;10386999;28;20717;-80
2022/10/22 20:52:48;;;;;;;9.57;8.60;;;15.30;99.90;;;;;;10386343;28;20584;-80
2022/10/22 20:57:50;;;;;;;10.63;7.43;;;15.30;99.90;;;;;;10386269;28;20218;-80
2022/10/22 21:02:52;;;;;;;9.20;8.30;;;15.20;99.90;;;;;;10384509;28;20203;-79
2022/10/22 21:07:57;;;;;;;8.33;7.53;;;15.20;99.90;;;;;;10386925;28;20301;-79
2022/10/22 21:12:59;;;;;;;13.37;8.60;;;15.20;99.90;;;;;;10384742;28;20194;-80
2022/10/22 21:18:01;;;;;;;8.60;7.20;;;15.20;99.90;;;;;;10390563;28;20298;-79
2022/10/22 21:23:04;;;;;;;11.83;7.43;;;15.10;99.90;;;;;;10384856;28;20191;-79
2022/10/22 21:28:06;;;;;;;8.30;7.20;;;15.10;99.90;;;;;;10384193;28;20249;-80
2022/10/22 21:33:08;;;;;;;7.00;6.40;;;15.10;99.90;;;;;;10386578;28;20205;-80
2022/10/22 21:38:12;;;;;;;9.83;6.90;;;15.10;99.90;;;;;;10392431;28;20304;-80
2022/10/22 21:43:14;;;;;;;11.30;7.20;;;15.00;99.90;;;;;;10384010;28;20380;-80
2022/10/22 21:48:17;;;;;;;11.63;7.10;;;15.00;99.90;;;;;;10382075;28;20286;-80
2022/10/22 21:53:20;;;;;;;10.93;7.90;;;15.00;99.90;;;;;;10382300;28;20202;-79
2022/10/22 21:58:22;;;;;;;19.60;8.10;;;15.00;99.90;;;;;;10381581;28;20372;-80
2022/10/22 22:03:25;;;;;;;10.50;5.83;;;15.00;99.90;;;;;;10381337;28;20670;-79
2022/10/22 22:08:28;;;;;;;9.60;6.77;;;15.00;99.90;;;;;;10383056;28;20309;-79
2022/10/22 22:13:31;;;;;;;6.97;6.30;;;14.90;99.90;;;;;;10381066;28;20623;-79
2022/10/22 22:18:34;;;;;;;6.70;6.10;;;14.90;99.90;;;;;;10381545;28;20222;-79
2022/10/22 22:23:40;;;;;;;10.97;7.00;;;14.90;99.90;;;;;;10382273;28;20206;-79
2022/10/22 22:28:42;;;;;;;13.50;7.30;;;14.90;99.90;;;;;;10381639;28;20249;-80
2022/10/22 22:33:44;;;;;;;6.83;6.20;;;14.90;99.90;;;;;;10377745;28;20210;-77
2022/10/22 22:38:48;;;;;;;8.30;7.53;;;14.90;99.90;;;;;;10369377;28;20671;-78
2022/10/22 22:43:50;;;;;;;8.33;6.80;;;14.90;99.90;;;;;;10369527;28;20190;-80
2022/10/22 22:48:52;;;;;;;11.10;8.17;;;14.90;99.90;;;;;;10377223;28;20262;-80
2022/10/22 22:53:57;;;;;;;10.10;6.70;;;14.80;99.90;;;;;;10381990;28;20198;-79
2022/10/22 22:58:59;;;;;;;13.37;12.03;;;14.80;99.90;;;;;;10381911;28;20551;-80
2022/10/22 23:04:03;;;;;;;10.47;8.27;;;14.80;99.90;;;;;;10385127;28;20246;-80
2022/10/22 23:09:08;;;;;;;8.90;6.83;;;14.70;99.90;;;;;;10389460;28;20218;-79
2022/10/22 23:14:13;;;;;;;9.40;6.27;;;14.70;99.90;;;;;;10397149;28;20306;-80
2022/10/22 23:19:18;;;;;;;6.80;6.17;;;14.60;99.90;;;;;;10393975;28;20187;-80
2022/10/22 23:24:24;;;;;;;8.23;7.40;;;14.60;99.90;;;;;;10393070;28;20242;-78
2022/10/22 23:29:28;;;;;;;7.13;6.43;;;14.60;99.90;;;;;;10387403;28;20210;-79
2022/10/22 23:34:31;;;;;;;11.07;6.90;;;14.60;99.90;;;;;;10387633;28;20247;-79
2022/10/22 23:39:35;;;;;;;9.10;5.83;;;14.50;99.90;;;;;;10388960;28;20198;-80
2022/10/22 23:44:37;;;;;;;11.07;5.70;;;14.50;99.90;;;;;;10389076;28;20250;-80
2022/10/22 23:49:39;;;;;;;6.93;5.70;;;14.50;99.90;;;;;;10387484;28;20304;-80
2022/10/22 23:54:42;;;;;;;6.53;5.57;;;14.40;99.90;;;;;;10387850;28;20273;-81
2022/10/22 23:59:44;;;;;;;5.30;4.90;;;14.40;99.90;;;;;;10386432;28;20604;-79
